Time;durP1;ratioP1;P1;durP2;ratioP2;P2;SDS_P1;SDS_P2;PMS_P1;PMS_P2;Temp;Humidity;BMP_temperature;BMP_pressure;BME280_temperature;BME280_humidity;BME280_pressure;Samples;Min_cycle;Max_cycle;Signal;HPM_P1;HPM_P2
2023/07/31 00:01:40;;;;;;;12.07;6.38;;;20.70;99.90;;;;;;5074233;28;20036;-65
2023/07/31 00:04:05;;;;;;;14.20;6.18;;;20.60;99.90;;;;;;5073947;28;20017;-68
2023/07/31 00:06:31;;;;;;;11.95;6.20;;;20.60;99.90;;;;;;5073751;28;20041;-66
2023/07/31 00:08:56;;;;;;;13.77;5.90;;;20.60;99.90;;;;;;5073440;28;20025;-64
2023/07/31 00:11:22;;;;;;;12.27;5.50;;;20.60;99.90;;;;;;5073902;28;20035;-64
2023/07/31 00:13:47;;;;;;;13.02;5.15;;;20.60;99.90;;;;;;5073704;28;20538;-64
2023/07/31 00:16:13;;;;;;;12.57;5.63;;;20.60;99.90;;;;;;5073491;28;20082;-66
2023/07/31 00:18:38;;;;;;;15.10;6.45;;;20.60;99.90;;;;;;5073372;28;20099;-64
2023/07/31 00:21:04;;;;;;;14.10;5.68;;;20.60;99.90;;;;;;5073738;28;20389;-64
2023/07/31 00:23:30;;;;;;;13.70;5.45;;;20.60;99.90;;;;;;5073448;28;20047;-64
2023/07/31 00:25:55;;;;;;;15.70;6.13;;;20.50;99.80;;;;;;5073653;28;20501;-65
2023/07/31 00:28:21;;;;;;;12.75;5.57;;;20.60;99.90;;;;;;5072057;28;20109;-65
2023/07/31 00:30:46;;;;;;;16.85;6.57;;;20.50;99.70;;;;;;5073525;28;20038;-64
2023/07/31 00:33:12;;;;;;;15.60;6.10;;;20.50;99.60;;;;;;5073448;28;20032;-65
2023/07/31 00:35:37;;;;;;;13.27;6.32;;;20.50;99.70;;;;;;5073184;28;20427;-64
2023/07/31 00:38:03;;;;;;;14.38;6.35;;;20.50;99.80;;;;;;5073459;28;20469;-64
2023/07/31 00:40:28;;;;;;;12.82;5.72;;;20.50;99.80;;;;;;5073296;28;20466;-65
2023/07/31 00:42:54;;;;;;;13.82;5.82;;;20.50;99.80;;;;;;5073176;28;20100;-65
2023/07/31 00:45:22;;;;;;;16.08;6.40;;;20.50;99.70;;;;;;5073158;28;20100;-65
2023/07/31 00:47:48;;;;;;;15.65;6.10;;;20.50;99.60;;;;;;5073303;28;20485;-64
2023/07/31 00:50:14;;;;;;;13.00;6.35;;;20.50;99.60;;;;;;5072987;28;20039;-64
2023/07/31 00:52:40;;;;;;;12.52;6.07;;;20.50;99.70;;;;;;5073159;28;20048;-66
2023/07/31 00:55:06;;;;;;;11.75;5.60;;;20.40;99.50;;;;;;5073128;28;20466;-65
2023/07/31 00:57:33;;;;;;;12.23;6.20;;;20.50;99.50;;;;;;5073264;28;20021;-65
2023/07/31 00:59:58;;;;;;;15.23;6.40;;;20.40;99.40;;;;;;5073006;28;20028;-65
2023/07/31 01:02:24;;;;;;;15.57;6.82;;;20.40;99.50;;;;;;5073174;28;20074;-64
2023/07/31 01:04:49;;;;;;;15.95;6.28;;;20.30;99.40;;;;;;5072776;28;20042;-65
2023/07/31 01:07:33;;;;;;;14.45;6.30;;;20.30;99.40;;;;;;5072889;28;20393;-65
2023/07/31 01:10:01;;;;;;;12.85;6.45;;;20.30;99.50;;;;;;5073169;28;20020;-64
2023/07/31 01:12:29;;;;;;;13.13;6.63;;;20.40;99.60;;;;;;5072956;28;20474;-64
2023/07/31 01:15:12;;;;;;;13.70;6.40;;;20.40;99.50;;;;;;5073102;28;20484;-64
2023/07/31 01:17:38;;;;;;;14.90;6.75;;;20.40;99.70;;;;;;5072866;28;20025;-64
2023/07/31 01:20:10;;;;;;;16.80;6.30;;;20.40;99.50;;;;;;5072751;28;20089;-64
2023/07/31 01:22:48;;;;;;;13.98;6.30;;;20.40;99.50;;;;;;5073192;28;20102;-64
2023/07/31 01:25:32;;;;;;;17.55;7.53;;;20.40;99.50;;;;;;5073171;28;20027;-64
2023/07/31 01:28:07;;;;;;;12.73;5.97;;;20.40;99.40;;;;;;5073844;28;20032;-64
2023/07/31 01:30:37;;;;;;;13.10;5.45;;;20.40;99.50;;;;;;5076736;28;20108;-65
2023/07/31 01:33:09;;;;;;;14.18;6.28;;;20.40;99.50;;;;;;5076770;28;20029;-68
2023/07/31 01:35:36;;;;;;;15.07;5.85;;;20.40;99.40;;;;;;5076549;28;20111;-64
2023/07/31 01:38:01;;;;;;;15.57;5.95;;;20.30;99.40;;;;;;5076914;28;20412;-64
2023/07/31 01:40:27;;;;;;;13.65;5.68;;;20.30;99.30;;;;;;5076777;28;20492;-64
2023/07/31 01:42:52;;;;;;;13.30;5.82;;;20.30;99.60;;;;;;5076749;28;20493;-64
2023/07/31 01:45:18;;;;;;;13.85;5.85;;;20.30;99.30;;;;;;5076544;28;20021;-66
2023/07/31 01:47:44;;;;;;;13.20;5.95;;;20.30;99.40;;;;;;5076558;28;20025;-64
2023/07/31 01:50:09;;;;;;;12.98;5.90;;;20.30;99.30;;;;;;5076235;28;20036;-64
2023/07/31 01:52:35;;;;;;;14.48;5.95;;;20.20;99.40;;;;;;5076520;28;20029;-64
2023/07/31 01:55:01;;;;;;;9.65;4.97;;;20.30;99.50;;;;;;5076195;28;20080;-64
2023/07/31 01:57:26;;;;;;;14.80;5.35;;;20.20;99.50;;;;;;5076471;28;20107;-64
2023/07/31 01:59:53;;;;;;;17.35;6.32;;;20.30;99.50;;;;;;5075891;28;20037;-64
2023/07/31 02:02:19;;;;;;;15.63;5.97;;;20.30;99.60;;;;;;5073528;28;20029;-65
2023/07/31 02:04:45;;;;;;;13.75;6.00;;;20.20;99.60;;;;;;5075574;28;20078;-65
2023/07/31 02:07:10;;;;;;;13.05;5.57;;;20.20;99.60;;;;;;5076085;28;20041;-64
2023/07/31 02:09:36;;;;;;;14.38;5.30;;;20.20;99.60;;;;;;5076209;28;20024;-64
2023/07/31 02:12:02;;;;;;;16.75;5.72;;;20.20;99.70;;;;;;5075828;28;20033;-64
2023/07/31 02:14:27;;;;;;;12.68;5.18;;;20.20;99.60;;;;;;5076038;28;20024;-64
2023/07/31 02:16:53;;;;;;;13.50;4.97;;;20.20;99.60;;;;;;5076224;28;20025;-64
2023/07/31 02:19:19;;;;;;;13.07;5.60;;;20.20;99.60;;;;;;5075865;28;20031;-64
2023/07/31 02:21:44;;;;;;;9.85;5.43;;;20.20;99.60;;;;;;5075916;28;20020;-64
2023/07/31 02:24:10;;;;;;;12.50;6.00;;;20.30;99.60;;;;;;5076004;28;20052;-64
2023/07/31 02:26:35;;;;;;;12.20;5.30;;;20.20;99.60;;;;;;5075577;28;20129;-64
2023/07/31 02:29:01;;;;;;;12.07;5.40;;;20.30;99.60;;;;;;5075873;28;20032;-64
2023/07/31 02:31:26;;;;;;;11.45;5.15;;;20.20;99.60;;;;;;5075758;28;20043;-65
2023/07/31 02:33:52;;;;;;;12.68;5.55;;;20.20;99.60;;;;;;5075617;28;20077;-64
2023/07/31 02:36:17;;;;;;;12.43;5.22;;;20.20;99.70;;;;;;5075700;28;20029;-64
2023/07/31 02:38:43;;;;;;;15.52;5.80;;;20.20;99.70;;;;;;5075757;28;20023;-65
2023/07/31 02:41:09;;;;;;;11.55;5.20;;;20.20;99.70;;;;;;5074814;28;20486;-64
2023/07/31 02:43:34;;;;;;;12.40;4.95;;;20.30;99.70;;;;;;5075576;28;20009;-64
2023/07/31 02:46:00;;;;;;;14.13;5.30;;;20.20;99.80;;;;;;5075617;28;20032;-64
2023/07/31 02:48:25;;;;;;;12.43;4.85;;;20.20;99.80;;;;;;5075090;28;20024;-65
2023/07/31 02:50:51;;;;;;;14.88;4.85;;;20.20;99.80;;;;;;5075423;28;20024;-65
2023/07/31 02:53:16;;;;;;;11.68;5.15;;;20.20;99.80;;;;;;5075247;28;20103;-64
2023/07/31 02:55:42;;;;;;;12.77;5.03;;;20.20;99.80;;;;;;5075269;28;20500;-64
2023/07/31 02:58:07;;;;;;;10.65;4.55;;;20.10;99.90;;;;;;5075398;28;20389;-65
2023/07/31 03:00:33;;;;;;;9.95;4.60;;;20.20;99.90;;;;;;5075069;28;20086;-64
2023/07/31 03:02:58;;;;;;;9.50;4.97;;;20.20;99.90;;;;;;5075245;28;20029;-64
2023/07/31 03:05:24;;;;;;;12.93;5.28;;;20.20;99.90;;;;;;5075054;28;20094;-66
2023/07/31 03:07:50;;;;;;;13.27;5.10;;;20.20;99.90;;;;;;5075176;28;20465;-65
2023/07/31 03:10:15;;;;;;;10.20;4.75;;;20.20;99.90;;;;;;5075162;28;20025;-65
2023/07/31 03:12:41;;;;;;;11.75;4.65;;;20.20;99.90;;;;;;5074877;28;20461;-65
2023/07/31 03:15:07;;;;;;;8.77;4.93;;;20.20;99.90;;;;;;5074889;28;20052;-64
2023/07/31 03:17:33;;;;;;;12.90;4.75;;;20.20;99.90;;;;;;5074866;28;20025;-65
2023/07/31 03:19:58;;;;;;;9.77;4.32;;;20.20;99.90;;;;;;5075016;28;20070;-65
2023/07/31 03:22:24;;;;;;;12.05;4.35;;;20.20;99.90;;;;;;5074747;28;20059;-64
2023/07/31 03:24:49;;;;;;;10.02;4.68;;;20.20;99.90;;;;;;5074810;28;20502;-64
2023/07/31 03:27:15;;;;;;;13.45;4.70;;;20.10;99.90;;;;;;5074518;28;20058;-64
2023/07/31 03:29:40;;;;;;;11.65;4.95;;;20.10;99.90;;;;;;5074404;28;20025;-64
2023/07/31 03:32:07;;;;;;;10.45;4.82;;;20.20;99.90;;;;;;5074674;28;20037;-64
2023/07/31 03:34:32;;;;;;;13.70;5.40;;;20.10;99.90;;;;;;5074423;28;20017;-64
2023/07/31 03:36:58;;;;;;;10.45;4.13;;;20.20;99.90;;;;;;5074756;28;20057;-64
2023/07/31 03:39:24;;;;;;;9.55;4.32;;;20.10;99.90;;;;;;5074411;28;20106;-65
2023/07/31 03:41:49;;;;;;;9.95;4.43;;;20.10;99.90;;;;;;5074398;28;20070;-64
2023/07/31 03:44:15;;;;;;;9.13;4.35;;;20.10;99.90;;;;;;5074160;28;20082;-66
2023/07/31 03:46:41;;;;;;;10.23;5.03;;;20.20;99.90;;;;;;5075524;28;20043;-64
2023/07/31 03:49:07;;;;;;;11.88;4.50;;;20.20;99.90;;;;;;5074826;28;20048;-72
2023/07/31 03:51:32;;;;;;;11.23;4.70;;;20.20;99.90;;;;;;5073337;28;20033;-71
2023/07/31 03:53:58;;;;;;;9.95;4.53;;;20.10;99.90;;;;;;5074051;28;20021;-66
2023/07/31 03:56:23;;;;;;;10.27;4.85;;;20.20;99.90;;;;;;5074458;28;20028;-64
2023/07/31 03:58:49;;;;;;;14.48;5.47;;;20.10;99.90;;;;;;5073580;28;20016;-64
2023/07/31 04:01:14;;;;;;;11.65;4.95;;;20.10;99.90;;;;;;5074191;28;20040;-64
2023/07/31 04:03:40;;;;;;;9.82;5.50;;;20.10;99.90;;;;;;5073889;28;20021;-64
2023/07/31 04:06:07;;;;;;;10.65;4.85;;;20.10;99.90;;;;;;5074060;28;20109;-65
2023/07/31 04:08:32;;;;;;;10.48;4.45;;;20.10;99.90;;;;;;5076134;28;20021;-65
2023/07/31 04:10:58;;;;;;;13.00;5.07;;;20.10;99.90;;;;;;5076384;28;20029;-64
2023/07/31 04:13:24;;;;;;;10.52;5.28;;;20.10;99.90;;;;;;5090685;28;20022;-64
2023/07/31 04:15:54;;;;;;;10.13;5.22;;;20.10;99.90;;;;;;5074610;28;20035;-64
2023/07/31 04:18:20;;;;;;;8.77;4.78;;;20.10;99.90;;;;;;5073727;28;20158;-64
2023/07/31 04:20:45;;;;;;;9.40;4.47;;;20.10;99.90;;;;;;5073937;28;20098;-65
2023/07/31 04:23:11;;;;;;;10.23;4.75;;;20.10;99.90;;;;;;5085344;28;20024;-64
2023/07/31 04:25:37;;;;;;;9.40;4.75;;;20.10;99.90;;;;;;5083026;28;20036;-67
2023/07/31 04:28:02;;;;;;;10.18;4.57;;;20.10;99.90;;;;;;5093682;28;20457;-71
2023/07/31 04:30:28;;;;;;;9.57;5.22;;;20.10;99.90;;;;;;5093630;28;20036;-72
2023/07/31 04:32:53;;;;;;;10.50;5.03;;;20.10;99.90;;;;;;5085327;28;20023;-73
2023/07/31 04:35:19;;;;;;;11.15;5.43;;;20.10;99.90;;;;;;5085103;28;20052;-75
2023/07/31 04:37:48;;;;;;;13.57;5.03;;;20.10;99.90;;;;;;5072662;28;20032;-69
2023/07/31 04:40:14;;;;;;;33.83;7.38;;;20.10;99.90;;;;;;5072976;28;20054;-71
2023/07/31 04:42:40;;;;;;;10.85;4.20;;;20.10;99.90;;;;;;5072677;28;20028;-66
2023/07/31 04:45:06;;;;;;;9.68;4.38;;;20.10;99.90;;;;;;5073061;28;20032;-65
2023/07/31 04:47:31;;;;;;;6.47;4.20;;;20.10;99.90;;;;;;5073242;28;20025;-70
2023/07/31 04:49:57;;;;;;;6.53;4.00;;;20.10;99.90;;;;;;5073232;28;20032;-69
2023/07/31 04:52:22;;;;;;;8.25;3.92;;;20.20;99.90;;;;;;5073220;28;20035;-66
2023/07/31 04:54:48;;;;;;;8.95;3.58;;;20.10;99.90;;;;;;5072943;28;20021;-67
2023/07/31 04:57:14;;;;;;;8.77;4.18;;;20.20;99.90;;;;;;5072969;28;20492;-71
2023/07/31 04:59:39;;;;;;;5.55;3.55;;;20.20;99.90;;;;;;5072970;28;20032;-70
2023/07/31 05:02:07;;;;;;;7.10;3.75;;;20.10;99.90;;;;;;5074692;28;20496;-65
2023/07/31 05:04:32;;;;;;;6.32;3.10;;;20.10;99.90;;;;;;5072358;28;20046;-66
2023/07/31 05:06:58;;;;;;;7.28;3.97;;;20.20;99.90;;;;;;5072711;28;20434;-65
2023/07/31 05:09:23;;;;;;;7.70;3.75;;;20.20;99.90;;;;;;5073128;28;20026;-65
2023/07/31 05:11:49;;;;;;;8.98;3.47;;;20.20;99.90;;;;;;5072764;28;20025;-65
2023/07/31 05:14:15;;;;;;;6.93;3.70;;;20.20;99.90;;;;;;5072964;28;20488;-65
2023/07/31 05:16:41;;;;;;;4.47;3.47;;;20.20;99.90;;;;;;5072868;28;20020;-65
2023/07/31 05:19:06;;;;;;;6.15;3.45;;;20.10;99.90;;;;;;5073112;28;20073;-65
2023/07/31 05:21:32;;;;;;;6.53;3.78;;;20.10;99.90;;;;;;5072760;28;20063;-65
2023/07/31 05:23:58;;;;;;;4.47;3.00;;;20.10;99.90;;;;;;5072865;28;20099;-65
2023/07/31 05:26:23;;;;;;;5.50;3.33;;;20.10;99.90;;;;;;5072555;28;20495;-65
2023/07/31 05:28:49;;;;;;;7.88;3.20;;;20.10;99.90;;;;;;5072839;28;20024;-65
2023/07/31 05:31:14;;;;;;;6.47;2.67;;;20.10;99.90;;;;;;5072765;28;20063;-65
2023/07/31 05:33:40;;;;;;;3.90;2.90;;;20.10;99.90;;;;;;5072637;28;20021;-65
2023/07/31 05:36:06;;;;;;;5.15;3.50;;;20.10;99.90;;;;;;5072761;28;20462;-65
2023/07/31 05:38:31;;;;;;;4.50;2.90;;;20.10;99.90;;;;;;5072735;28;20059;-65
2023/07/31 05:40:57;;;;;;;4.85;2.58;;;20.10;99.90;;;;;;5072216;28;20036;-65
2023/07/31 05:43:22;;;;;;;5.55;3.08;;;20.10;99.90;;;;;;5072550;28;20047;-65
2023/07/31 05:45:48;;;;;;;6.03;3.30;;;20.10;99.90;;;;;;5072502;28;20032;-65
2023/07/31 05:48:14;;;;;;;5.05;3.05;;;20.10;99.90;;;;;;5072843;28;20028;-65
2023/07/31 05:50:39;;;;;;;4.13;2.92;;;20.10;99.90;;;;;;5072635;28;20350;-65
2023/07/31 05:53:06;;;;;;;4.85;2.85;;;20.10;99.90;;;;;;5072592;28;20024;-66
2023/07/31 05:55:32;;;;;;;3.75;3.15;;;20.10;99.90;;;;;;5072466;28;20031;-66
2023/07/31 05:57:57;;;;;;;6.97;3.25;;;20.10;99.90;;;;;;5072560;28;20028;-65
2023/07/31 06:00:23;;;;;;;5.68;2.90;;;20.10;99.90;;;;;;5072515;28;20485;-65
2023/07/31 06:02:49;;;;;;;5.53;3.13;;;20.10;99.90;;;;;;5072589;28;20029;-64
2023/07/31 06:05:14;;;;;;;8.27;3.63;;;20.10;99.90;;;;;;5072639;28;20036;-65
2023/07/31 06:07:40;;;;;;;5.18;3.10;;;20.10;99.90;;;;;;5073200;28;20028;-70
2023/07/31 06:10:06;;;;;;;5.97;3.50;;;20.10;99.90;;;;;;5072298;28;20021;-67
2023/07/31 06:12:33;;;;;;;6.18;3.08;;;20.10;99.90;;;;;;5072371;28;20100;-70
2023/07/31 06:14:58;;;;;;;6.55;3.88;;;20.10;99.90;;;;;;5073011;28;20032;-69
2023/07/31 06:17:25;;;;;;;5.00;3.35;;;20.10;99.90;;;;;;5074884;28;20025;-71
2023/07/31 06:19:51;;;;;;;5.70;3.30;;;20.10;99.90;;;;;;5076003;28;20024;-71
2023/07/31 06:22:17;;;;;;;8.32;3.67;;;20.10;99.90;;;;;;5075888;28;20032;-71
2023/07/31 06:24:42;;;;;;;6.43;4.15;;;20.10;99.90;;;;;;5075651;28;20021;-65
2023/07/31 06:27:08;;;;;;;6.55;3.63;;;20.10;99.90;;;;;;5075661;28;20041;-65
2023/07/31 06:29:34;;;;;;;7.75;3.90;;;20.10;99.90;;;;;;5075800;28;20016;-65
2023/07/31 06:32:00;;;;;;;7.35;3.78;;;20.10;99.90;;;;;;5075586;28;20025;-65
2023/07/31 06:34:25;;;;;;;5.80;3.75;;;20.10;99.90;;;;;;5075641;28;20023;-66
2023/07/31 06:36:51;;;;;;;7.10;4.28;;;20.10;99.90;;;;;;5075556;28;20040;-64
2023/07/31 06:39:17;;;;;;;7.18;3.08;;;20.10;99.90;;;;;;5076487;28;20028;-65
2023/07/31 06:41:44;;;;;;;7.25;3.58;;;20.10;99.90;;;;;;5083708;28;20385;-64
2023/07/31 06:44:10;;;;;;;7.22;3.47;;;20.20;99.90;;;;;;5089771;28;20145;-66
2023/07/31 06:46:35;;;;;;;6.30;3.63;;;20.10;99.90;;;;;;5077760;28;20116;-66
2023/07/31 06:49:01;;;;;;;6.53;3.80;;;20.10;99.90;;;;;;5078289;28;20028;-66
2023/07/31 06:51:26;;;;;;;7.60;3.58;;;20.20;99.90;;;;;;5075177;28;20020;-66
2023/07/31 06:53:52;;;;;;;7.80;3.83;;;20.20;99.90;;;;;;5075015;28;20077;-72
2023/07/31 06:56:17;;;;;;;7.85;3.80;;;20.20;99.90;;;;;;5073711;28;20376;-71
2023/07/31 06:58:43;;;;;;;8.10;3.72;;;20.20;99.90;;;;;;5074634;28;20485;-70
2023/07/31 07:01:09;;;;;;;8.82;3.97;;;20.20;99.90;;;;;;5075129;28;20129;-71
2023/07/31 07:03:34;;;;;;;5.70;2.97;;;20.20;99.90;;;;;;5075105;28;20035;-70
2023/07/31 07:06:00;;;;;;;5.68;3.50;;;20.20;99.90;;;;;;5085640;28;20036;-70
2023/07/31 07:08:26;;;;;;;6.57;3.90;;;20.20;99.90;;;;;;5095013;28;20028;-66
2023/07/31 07:10:52;;;;;;;6.85;3.58;;;20.20;99.90;;;;;;5086141;28;20028;-65
2023/07/31 07:13:18;;;;;;;5.40;3.38;;;20.20;99.90;;;;;;5085429;28;20024;-66
2023/07/31 07:15:48;;;;;;;7.30;3.50;;;20.20;99.90;;;;;;5076584;28;20038;-66
2023/07/31 07:18:14;;;;;;;9.18;3.67;;;20.20;99.90;;;;;;5081969;28;20024;-64
2023/07/31 07:20:39;;;;;;;8.05;3.88;;;20.20;99.90;;;;;;5093209;28;20036;-66
2023/07/31 07:23:05;;;;;;;5.35;3.33;;;20.20;99.90;;;;;;5093967;28;20030;-66
2023/07/31 07:25:31;;;;;;;5.95;3.13;;;20.20;99.90;;;;;;5082531;28;20029;-67
2023/07/31 07:27:58;;;;;;;6.78;3.15;;;20.20;99.90;;;;;;5074397;28;20108;-66
2023/07/31 07:30:25;;;;;;;5.82;3.58;;;20.30;99.90;;;;;;5074567;28;20024;-66
2023/07/31 07:32:50;;;;;;;7.15;3.80;;;20.20;99.90;;;;;;5074351;28;20028;-67
2023/07/31 07:35:16;;;;;;;4.78;2.92;;;20.30;99.90;;;;;;5077392;28;20481;-67
2023/07/31 07:37:41;;;;;;;6.68;3.53;;;20.30;99.90;;;;;;5080906;28;20039;-66
2023/07/31 07:40:08;;;;;;;6.53;3.30;;;20.30;99.90;;;;;;5080177;28;20069;-66
2023/07/31 07:42:33;;;;;;;6.28;3.35;;;20.30;99.90;;;;;;5082006;28;20064;-67
2023/07/31 07:44:59;;;;;;;9.18;3.83;;;20.20;99.90;;;;;;5074458;28;20461;-66
2023/07/31 07:47:24;;;;;;;13.20;4.25;;;20.30;99.90;;;;;;5073911;28;20032;-63
2023/07/31 07:49:50;;;;;;;7.78;3.85;;;20.20;99.90;;;;;;5074259;28;20020;-63
2023/07/31 07:52:16;;;;;;;8.80;3.42;;;20.20;99.90;;;;;;5074556;28;20104;-62
2023/07/31 07:54:41;;;;;;;11.55;3.90;;;20.20;99.90;;;;;;5087687;28;20023;-63
2023/07/31 07:57:07;;;;;;;8.63;4.22;;;20.20;99.90;;;;;;5094334;28;20047;-63
2023/07/31 07:59:32;;;;;;;6.47;3.35;;;20.20;99.90;;;;;;5077613;28;20044;-64
2023/07/31 08:01:58;;;;;;;6.45;3.25;;;20.20;99.90;;;;;;5083563;28;20107;-63
2023/07/31 08:04:23;;;;;;;9.80;3.38;;;20.20;99.90;;;;;;5075807;28;20081;-65
2023/07/31 08:06:49;;;;;;;6.65;3.15;;;20.20;99.90;;;;;;5085306;28;20507;-66
2023/07/31 08:09:14;;;;;;;5.45;3.05;;;20.20;99.90;;;;;;5077122;28;20031;-65
2023/07/31 08:11:40;;;;;;;6.18;3.67;;;20.20;99.90;;;;;;5073786;28;20031;-65
2023/07/31 08:14:06;;;;;;;6.50;3.45;;;20.20;99.90;;;;;;5084635;28;20084;-66
2023/07/31 08:16:31;;;;;;;9.18;3.42;;;20.20;99.90;;;;;;5082297;28;20028;-65
2023/07/31 08:18:57;;;;;;;6.38;2.90;;;20.20;99.90;;;;;;5078622;28;20540;-64
2023/07/31 08:21:23;;;;;;;7.80;3.30;;;20.20;99.90;;;;;;5091633;28;20044;-66
2023/07/31 08:23:48;;;;;;;8.68;3.15;;;20.20;99.90;;;;;;5075638;28;20384;-62
2023/07/31 08:26:18;;;;;;;5.40;3.45;;;20.30;99.90;;;;;;5085715;28;20081;-63
2023/07/31 08:28:44;;;;;;;6.63;2.95;;;20.20;99.90;;;;;;5082688;28;20025;-63
2023/07/31 08:31:10;;;;;;;7.05;3.45;;;20.30;99.90;;;;;;5073568;28;20382;-64
2023/07/31 08:33:36;;;;;;;5.07;2.75;;;20.20;99.90;;;;;;5084048;28;20078;-67
2023/07/31 08:36:03;;;;;;;6.03;3.00;;;20.30;99.90;;;;;;5072387;28;20036;-64
2023/07/31 08:38:29;;;;;;;6.85;2.60;;;20.30;99.90;;;;;;5075005;28;20017;-64
2023/07/31 08:40:56;;;;;;;7.50;3.20;;;20.40;99.90;;;;;;5071456;28;20466;-64
2023/07/31 08:43:25;;;;;;;8.13;3.03;;;20.40;99.90;;;;;;5082341;28;20021;-64
2023/07/31 08:45:50;;;;;;;5.30;2.60;;;20.40;99.90;;;;;;5077739;28;20028;-65
2023/07/31 08:48:17;;;;;;;5.38;2.80;;;20.40;99.90;;;;;;5091067;28;20031;-64
2023/07/31 08:50:43;;;;;;;4.10;2.70;;;20.40;99.90;;;;;;5079215;28;20033;-65
2023/07/31 08:53:09;;;;;;;4.97;2.70;;;20.40;99.90;;;;;;5092205;28;20035;-64
2023/07/31 08:55:36;;;;;;;4.97;2.72;;;20.40;99.90;;;;;;5084738;28;20016;-64
2023/07/31 08:58:04;;;;;;;6.63;2.80;;;20.50;99.90;;;;;;5079585;28;20029;-65
2023/07/31 09:00:31;;;;;;;4.45;2.85;;;20.50;99.90;;;;;;5090941;28;20024;-64
2023/07/31 09:03:09;;;;;;;4.65;2.55;;;20.50;99.90;;;;;;5085705;28;20044;-64
2023/07/31 09:05:39;;;;;;;6.00;2.88;;;20.50;99.90;;;;;;5077840;28;20035;-64
2023/07/31 09:08:07;;;;;;;5.47;2.22;;;20.40;99.90;;;;;;5078063;28;20037;-64
2023/07/31 09:10:33;;;;;;;4.03;2.72;;;20.50;99.90;;;;;;5076875;28;20029;-64
2023/07/31 09:12:58;;;;;;;7.18;2.65;;;20.50;99.90;;;;;;5085580;28;20468;-64
2023/07/31 09:15:25;;;;;;;3.00;2.33;;;20.50;99.90;;;;;;5080978;28;20021;-64
2023/07/31 09:18:00;;;;;;;4.03;2.60;;;20.50;99.90;;;;;;5071981;28;20031;-65
2023/07/31 09:20:26;;;;;;;4.70;2.25;;;20.60;99.90;;;;;;5071927;28;20516;-64
2023/07/31 09:22:52;;;;;;;3.38;2.33;;;20.60;99.90;;;;;;5072303;28;20108;-64
2023/07/31 09:25:25;;;;;;;5.55;2.70;;;20.60;99.90;;;;;;5078904;28;20070;-63
2023/07/31 09:28:03;;;;;;;4.80;2.40;;;20.60;99.90;;;;;;5084440;28;20028;-64
2023/07/31 09:30:28;;;;;;;4.82;2.65;;;20.70;99.90;;;;;;5071719;28;20027;-64
2023/07/31 09:33:03;;;;;;;5.65;2.17;;;20.70;99.90;;;;;;5085719;28;20036;-64
2023/07/31 09:35:30;;;;;;;6.10;2.35;;;20.70;99.90;;;;;;5074415;28;20111;-62
2023/07/31 09:37:58;;;;;;;4.72;2.45;;;20.70;99.90;;;;;;5079489;28;20453;-66
2023/07/31 09:40:33;;;;;;;6.55;2.55;;;20.70;99.90;;;;;;5073672;28;20024;-68
2023/07/31 09:43:07;;;;;;;5.88;2.45;;;20.80;99.90;;;;;;5071905;28;20024;-66
2023/07/31 09:45:37;;;;;;;5.18;2.80;;;20.80;99.90;;;;;;5071907;28;20135;-67
2023/07/31 09:48:06;;;;;;;4.95;2.60;;;20.80;99.90;;;;;;5073702;28;20382;-65
2023/07/31 09:50:32;;;;;;;5.32;2.42;;;20.80;99.90;;;;;;5083795;28;20052;-65
2023/07/31 09:52:57;;;;;;;4.93;3.05;;;20.80;99.90;;;;;;5077145;28;20493;-66
2023/07/31 09:55:24;;;;;;;4.90;3.22;;;20.90;99.90;;;;;;5075718;28;20027;-65
2023/07/31 09:57:49;;;;;;;5.18;2.85;;;20.90;99.90;;;;;;5075916;28;20024;-65
2023/07/31 10:00:17;;;;;;;5.47;3.30;;;20.90;99.90;;;;;;5075405;28;20054;-64
2023/07/31 10:02:47;;;;;;;8.18;3.28;;;20.90;99.90;;;;;;5075037;28;20103;-66
2023/07/31 10:05:17;;;;;;;7.70;3.30;;;20.90;99.90;;;;;;5085269;28;20024;-65
2023/07/31 10:07:53;;;;;;;4.63;3.00;;;20.90;99.90;;;;;;5079977;28;20029;-65
2023/07/31 10:10:21;;;;;;;5.35;3.50;;;20.90;99.90;;;;;;5076105;28;20412;-66
2023/07/31 10:12:48;;;;;;;5.78;3.17;;;20.90;99.90;;;;;;5075615;28;20032;-66
2023/07/31 10:15:15;;;;;;;7.82;3.10;;;21.00;99.90;;;;;;5075558;28;20428;-66
2023/07/31 10:17:41;;;;;;;7.25;3.17;;;21.00;99.90;;;;;;5079869;28;20023;-66
2023/07/31 10:20:07;;;;;;;5.18;3.22;;;21.00;99.90;;;;;;5076370;28;20040;-65
2023/07/31 10:22:34;;;;;;;6.60;3.20;;;21.00;99.90;;;;;;5076666;28;20068;-65
2023/07/31 10:25:00;;;;;;;6.32;3.53;;;21.00;99.90;;;;;;5075730;28;20035;-64
2023/07/31 10:27:27;;;;;;;5.28;3.25;;;21.00;99.90;;;;;;5075359;28;20043;-64
2023/07/31 10:29:54;;;;;;;4.78;3.58;;;21.00;99.90;;;;;;5074037;28;20032;-65
2023/07/31 10:32:21;;;;;;;9.55;4.10;;;21.10;99.90;;;;;;5072629;28;20032;-63
2023/07/31 10:34:48;;;;;;;7.47;3.75;;;21.10;99.90;;;;;;5077967;28;20088;-63
2023/07/31 10:37:21;;;;;;;6.03;3.63;;;21.10;99.90;;;;;;5085904;28;20032;-63
2023/07/31 10:40:14;;;;;;;5.53;3.58;;;21.10;99.90;;;;;;5083359;28;20036;-64
2023/07/31 10:42:57;;;;;;;6.85;3.63;;;21.10;99.90;;;;;;5072617;28;20036;-64
2023/07/31 10:45:39;;;;;;;7.15;4.05;;;21.10;99.90;;;;;;5074596;28;20024;-64
2023/07/31 10:48:13;;;;;;;6.13;4.07;;;21.10;99.90;;;;;;5081113;28;20610;-63
2023/07/31 10:50:49;;;;;;;5.95;4.05;;;21.20;99.90;;;;;;5080871;28;20077;-64
2023/07/31 10:53:35;;;;;;;6.13;4.30;;;21.20;99.90;;;;;;5086345;28;20032;-64
2023/07/31 10:56:04;;;;;;;6.18;4.00;;;21.20;99.90;;;;;;5076910;28;20027;-64
2023/07/31 10:58:31;;;;;;;9.00;4.30;;;21.10;99.90;;;;;;5076315;28;20606;-64
2023/07/31 11:00:58;;;;;;;9.90;4.78;;;21.10;99.90;;;;;;5079232;28;20324;-64
2023/07/31 11:03:44;;;;;;;6.60;4.40;;;21.20;99.90;;;;;;5075970;28;20082;-64
2023/07/31 11:06:10;;;;;;;5.80;4.10;;;21.20;99.90;;;;;;5076816;28;20036;-64
2023/07/31 11:08:43;;;;;;;7.45;4.55;;;21.20;99.90;;;;;;5074338;28;20469;-73
2023/07/31 11:11:10;;;;;;;6.40;4.38;;;21.20;99.90;;;;;;5074953;28;20036;-70
2023/07/31 11:13:46;;;;;;;6.88;5.45;;;21.20;99.90;;;;;;5069872;28;20031;-67
2023/07/31 11:16:13;;;;;;;9.45;6.60;;;21.20;99.90;;;;;;5073975;28;20024;-66
2023/07/31 11:18:43;;;;;;;9.18;6.15;;;21.20;99.90;;;;;;5073802;28;20032;-65
2023/07/31 11:21:16;;;;;;;8.50;5.82;;;21.20;99.90;;;;;;5073940;28;20169;-66
2023/07/31 11:23:46;;;;;;;9.60;5.60;;;21.30;99.90;;;;;;5074666;28;20029;-64
2023/07/31 11:26:12;;;;;;;9.93;5.80;;;21.20;99.90;;;;;;5078711;28;20081;-64
2023/07/31 11:28:38;;;;;;;7.38;5.13;;;21.20;99.90;;;;;;5082493;28;20040;-65
2023/07/31 11:31:04;;;;;;;8.57;5.35;;;21.30;99.90;;;;;;5077609;28;20073;-66
2023/07/31 11:33:30;;;;;;;7.80;5.85;;;21.30;99.90;;;;;;5082036;28;20118;-64
2023/07/31 11:35:56;;;;;;;7.47;5.90;;;21.30;99.90;;;;;;5075104;28;20032;-64
2023/07/31 11:38:26;;;;;;;7.60;4.88;;;21.30;99.90;;;;;;5078340;28;20021;-67
2023/07/31 11:40:53;;;;;;;10.18;5.32;;;21.30;99.90;;;;;;5075909;28;20032;-66
2023/07/31 11:43:20;;;;;;;9.07;4.88;;;21.40;99.90;;;;;;5073983;28;20036;-62
2023/07/31 11:45:56;;;;;;;8.75;6.03;;;21.40;99.90;;;;;;5074858;28;20457;-65
2023/07/31 11:48:23;;;;;;;8.15;5.30;;;21.40;99.90;;;;;;5072261;28;20438;-64
2023/07/31 11:50:51;;;;;;;8.88;5.13;;;21.40;99.90;;;;;;5079127;28;20111;-63
2023/07/31 11:53:20;;;;;;;8.25;5.25;;;21.40;99.90;;;;;;5084112;28;20056;-67
2023/07/31 11:55:46;;;;;;;9.88;5.20;;;21.40;99.90;;;;;;5076028;28;20066;-67
2023/07/31 11:58:14;;;;;;;8.10;5.15;;;21.40;99.90;;;;;;5083116;28;20430;-67
2023/07/31 12:00:40;;;;;;;10.98;5.00;;;21.40;99.90;;;;;;5080059;28;20024;-64
2023/07/31 12:03:06;;;;;;;8.43;5.07;;;21.40;99.90;;;;;;5083080;28;20093;-60
2023/07/31 12:05:31;;;;;;;8.65;5.43;;;21.40;99.90;;;;;;5074992;28;20497;-66
2023/07/31 12:07:58;;;;;;;10.65;5.68;;;21.40;99.90;;;;;;5078152;28;20102;-64
2023/07/31 12:10:24;;;;;;;11.20;6.15;;;21.40;99.90;;;;;;5071931;28;20044;-66
2023/07/31 12:13:01;;;;;;;9.10;5.90;;;21.40;99.90;;;;;;5071499;28;20029;-61
2023/07/31 12:15:34;;;;;;;10.48;6.05;;;21.40;99.90;;;;;;5074612;28;20099;-60
2023/07/31 12:18:00;;;;;;;8.10;5.32;;;21.40;99.90;;;;;;5075756;28;20034;-61
2023/07/31 12:20:26;;;;;;;7.88;5.32;;;21.40;99.90;;;;;;5078192;28;20035;-61
2023/07/31 12:22:51;;;;;;;7.63;5.25;;;21.40;99.90;;;;;;5085677;28;20028;-60
2023/07/31 12:25:17;;;;;;;8.98;5.72;;;21.40;99.90;;;;;;5081130;28;20111;-61
2023/07/31 12:27:46;;;;;;;9.35;5.60;;;21.40;99.90;;;;;;5086243;28;20081;-61
2023/07/31 12:30:32;;;;;;;7.95;5.00;;;21.50;99.90;;;;;;5084237;28;20354;-60
2023/07/31 12:33:13;;;;;;;10.02;5.72;;;21.40;99.90;;;;;;5075118;28;20101;-60
2023/07/31 12:35:45;;;;;;;8.65;4.85;;;21.50;99.90;;;;;;5073284;28;20028;-60
2023/07/31 12:38:12;;;;;;;8.02;4.93;;;21.50;99.90;;;;;;5074591;28;20025;-60
2023/07/31 12:40:39;;;;;;;8.60;5.07;;;21.50;99.90;;;;;;5081199;28;20024;-61
2023/07/31 12:43:05;;;;;;;10.52;6.00;;;21.50;99.90;;;;;;5077215;28;20030;-61